Deer Park, Washington
Current Conditions -  °F | °C
As of 2:53 AM on Sunday 21 Dec 2014 (Local Time) from KDEW Reporting Station
Overcast Overcast  
Wind Chill: 41°   Ceiling: 1100
Heat Index: 46°   Visibility: 10mi
Dew Point: 44°   Wind: 9mph
Humidity: 93%   Direction: 230°SW
Pressure: 29.47"   Gusts: NA
Location:  47.95°N, 117.48°W
Report Text: KDEW 211053Z AUTO 23008KT 10SM OVC011 08/07 A2947 RMK AO2 SLP987 T00780067
Loading
Personal Weather Stations






























Interactive Weather Map New forecast layout! Learn more

10-Day Weather Forecast

Advertisements
Track Severe Weather on mobile